Time;durP1;ratioP1;P1;durP2;ratioP2;P2;SDS_P1;SDS_P2;PMS_P1;PMS_P2;Temp;Humidity;BMP_temperature;BMP_pressure;BME280_temperature;BME280_humidity;BME280_pressure;Samples;Min_cycle;Max_cycle;Signal;HPM_P1;HPM_P2
2023/04/06 00:00:36;;;;;;;10.20;5.22;;;0.30;99.90;;;;;;5033149;28;20494;-53
2023/04/06 00:03:03;;;;;;;9.00;5.50;;;0.20;99.90;;;;;;5032358;28;20049;-50
2023/04/06 00:05:30;;;;;;;8.05;4.78;;;0.10;99.90;;;;;;5033216;28;20029;-50
2023/04/06 00:07:58;;;;;;;10.80;5.00;;;0.10;99.90;;;;;;5032795;28;20478;-51
2023/04/06 00:10:25;;;;;;;8.52;5.13;;;0.00;99.90;;;;;;5033276;28;20042;-50
2023/04/06 00:12:52;;;;;;;8.38;4.93;;;0.00;99.90;;;;;;5033090;28;20041;-52
2023/04/06 00:15:19;;;;;;;;;;;0.00;99.90;;;;;;5025842;28;20052;-52
2023/04/06 00:17:46;;;;;;;8.25;4.78;;;0.10;99.90;;;;;;5033513;28;19921;-51
2023/04/06 00:20:13;;;;;;;9.43;3.55;;;0.10;99.90;;;;;;5031865;28;20116;-51
2023/04/06 00:22:40;;;;;;;9.68;5.10;;;0.20;99.90;;;;;;5042053;22;20573;-51
2023/04/06 00:29:26;;;;;;;8.20;4.75;;;0.20;99.90;;;;;;5025575;28;20048;-48
2023/04/06 00:31:53;;;;;;;10.50;5.47;;;0.10;99.90;;;;;;5018937;28;20049;-49
2023/04/06 00:34:20;;;;;;;10.00;5.47;;;0.10;99.90;;;;;;5031968;28;20569;-50
2023/04/06 00:36:46;;;;;;;15.40;5.72;;;0.00;99.90;;;;;;5032928;28;20084;-51
2023/04/06 00:39:13;;;;;;;10.05;4.13;;;0.00;99.90;;;;;;5032464;28;20490;-49
2023/04/06 00:41:47;;;;;;;13.95;6.00;;;0.00;99.90;;;;;;5032900;28;20080;-49
2023/04/06 00:44:14;;;;;;;15.98;5.57;;;0.00;99.90;;;;;;5047607;28;20494;-48
2023/04/06 00:46:41;;;;;;;12.93;6.00;;;-0.10;99.90;;;;;;5031650;28;20156;-49
2023/04/06 00:49:08;;;;;;;17.77;5.75;;;-0.10;99.90;;;;;;5032236;28;20504;-48
2023/04/06 00:51:35;;;;;;;9.77;5.22;;;-0.10;99.90;;;;;;5026021;28;20048;-48
2023/04/06 00:54:02;;;;;;;10.52;5.40;;;-0.20;99.90;;;;;;5011671;28;20104;-51
2023/04/06 00:56:31;;;;;;;11.93;4.95;;;-0.20;99.90;;;;;;4994921;28;20053;-48
2023/04/06 00:58:59;;;;;;;;;;;-0.20;99.90;;;;;;5011681;28;20049;-48
2023/04/06 01:01:26;;;;;;;8.95;4.35;;;-0.10;99.90;;;;;;5023016;28;19921;-49
2023/04/06 01:03:56;;;;;;;11.95;4.88;;;-0.10;99.90;;;;;;5011437;28;20046;-49
2023/04/06 01:06:23;;;;;;;11.38;5.57;;;0.00;99.90;;;;;;5010333;28;20108;-49
2023/04/06 01:08:58;;;;;;;10.85;5.70;;;0.00;99.90;;;;;;4995459;28;20062;-50
2023/04/06 01:11:26;;;;;;;10.95;5.28;;;0.00;99.90;;;;;;5014441;28;20437;-49
2023/04/06 01:13:53;;;;;;;9.13;5.18;;;0.00;99.90;;;;;;5014564;28;20160;-50
2023/04/06 01:16:26;;;;;;;9.23;5.38;;;0.00;99.90;;;;;;5014794;28;20132;-49
2023/04/06 01:19:16;;;;;;;11.95;5.78;;;-0.10;99.90;;;;;;5008868;28;20147;-48
2023/04/06 01:21:49;;;;;;;12.57;5.43;;;-0.20;99.90;;;;;;5022671;28;20065;-48
2023/04/06 01:24:35;;;;;;;;;;;-0.20;99.90;;;;;;5032362;28;20053;-48
2023/04/06 01:27:26;;;;;;;11.90;5.32;;;-0.30;99.90;;;;;;5043050;28;19922;-49
2023/04/06 01:30:17;;;;;;;11.32;6.22;;;-0.30;99.90;;;;;;5013636;28;20494;-48
2023/04/06 01:32:51;;;;;;;13.88;5.25;;;-0.40;99.90;;;;;;5029453;28;20123;-48
2023/04/06 01:35:29;;;;;;;;;;;-0.40;99.90;;;;;;5006493;28;20037;-48
2023/04/06 01:38:08;;;;;;;;;;;-0.40;99.90;;;;;;5010274;28;19925;-53
2023/04/06 01:40:36;;;;;;;8.68;3.63;;;-0.40;99.90;;;;;;5010428;28;20302;-51
2023/04/06 01:43:03;;;;;;;10.90;5.75;;;-0.40;99.90;;;;;;5023120;28;20051;-48
2023/04/06 01:45:36;;;;;;;14.23;5.60;;;-0.40;99.90;;;;;;5019234;28;20492;-49
2023/04/06 01:48:12;;;;;;;12.90;6.55;;;-0.40;99.90;;;;;;5030028;28;20132;-48
2023/04/06 01:50:39;;;;;;;9.65;6.20;;;-0.50;99.90;;;;;;5031536;28;20111;-49
2023/04/06 01:53:08;;;;;;;13.50;6.07;;;-0.50;99.90;;;;;;5025495;28;20056;-49
2023/04/06 01:55:36;;;;;;;12.93;6.60;;;-0.40;99.90;;;;;;5019222;28;20441;-49
2023/04/06 01:58:26;;;;;;;10.70;5.80;;;-0.40;99.90;;;;;;5030082;28;20055;-49
2023/04/06 02:00:53;;;;;;;16.30;6.90;;;-0.40;99.90;;;;;;5029453;28;20049;-48
2023/04/06 02:03:19;;;;;;;13.23;6.90;;;-0.20;99.90;;;;;;5014834;28;20418;-48
2023/04/06 02:05:49;;;;;;;13.18;6.80;;;-0.40;99.90;;;;;;5029279;28;20510;-50
2023/04/06 02:08:27;;;;;;;18.63;7.18;;;-0.40;99.90;;;;;;5029409;28;20301;-52
2023/04/06 02:10:54;;;;;;;13.23;6.65;;;-0.30;99.90;;;;;;5027623;28;20053;-48
2023/04/06 02:13:33;;;;;;;13.52;6.68;;;-0.40;99.90;;;;;;5010170;28;20046;-48
2023/04/06 02:15:59;;;;;;;13.75;8.10;;;-0.40;99.90;;;;;;4993770;28;20052;-48
2023/04/06 02:18:30;;;;;;;10.43;6.70;;;-0.40;99.90;;;;;;5024723;28;20131;-48
2023/04/06 02:20:56;;;;;;;15.93;7.13;;;-0.40;99.90;;;;;;5016909;28;20450;-48
2023/04/06 02:23:23;;;;;;;16.73;7.63;;;0.00;99.90;;;;;;5009958;28;20069;-48
2023/04/06 02:25:50;;;;;;;18.35;6.38;;;-0.40;99.90;;;;;;5010109;28;20046;-49
2023/04/06 02:28:17;;;;;;;16.48;8.05;;;-0.40;99.90;;;;;;5007084;28;20042;-49
2023/04/06 02:30:44;;;;;;;15.10;8.13;;;-0.40;99.90;;;;;;5031059;28;20099;-48
2023/04/06 02:33:11;;;;;;;17.33;8.05;;;-0.40;99.90;;;;;;5028703;28;20675;-49
2023/04/06 02:35:45;;;;;;;13.63;7.35;;;-0.40;99.90;;;;;;5020982;28;20092;-49
2023/04/06 02:38:12;;;;;;;15.05;6.63;;;-0.40;99.90;;;;;;5030741;28;20061;-48
2023/04/06 02:40:38;;;;;;;13.48;6.72;;;-0.40;99.90;;;;;;5029582;28;20103;-48
2023/04/06 02:43:17;;;;;;;;;;;-0.40;99.90;;;;;;5013607;28;20041;-48
2023/04/06 02:45:44;;;;;;;14.27;6.88;;;-0.40;99.90;;;;;;5029762;28;20374;-49
2023/04/06 02:48:12;;;;;;;;;;;-0.40;99.90;;;;;;5025922;28;20534;-50
2023/04/06 02:50:38;;;;;;;15.40;7.00;;;-0.40;99.90;;;;;;5009835;28;19921;-50
2023/04/06 02:53:06;;;;;;;13.27;6.45;;;-0.40;99.90;;;;;;5009660;28;20038;-49
2023/04/06 02:55:35;;;;;;;15.02;6.75;;;-0.50;99.90;;;;;;4997414;28;20611;-51
2023/04/06 02:58:02;;;;;;;14.70;6.82;;;-0.50;99.90;;;;;;5038543;28;20084;-48
2023/04/06 03:00:37;;;;;;;13.07;6.22;;;-0.30;99.90;;;;;;5033298;28;20088;-49
2023/04/06 03:03:03;;;;;;;;;;;-0.60;99.90;;;;;;5032680;28;20080;-49
2023/04/06 03:05:31;;;;;;;13.05;6.88;;;-0.70;99.90;;;;;;5014889;28;19921;-49
2023/04/06 03:07:57;;;;;;;14.25;7.30;;;-0.80;99.90;;;;;;5014116;28;20056;-48
2023/04/06 03:10:34;;;;;;;12.60;6.32;;;-0.50;99.90;;;;;;4997207;28;20046;-48
2023/04/06 03:13:01;;;;;;;15.43;6.80;;;-1.00;99.90;;;;;;5034424;28;20453;-49
2023/04/06 03:15:42;;;;;;;12.98;6.47;;;-1.00;99.90;;;;;;5016869;28;20049;-49
2023/04/06 03:18:14;;;;;;;17.33;7.32;;;-1.00;99.90;;;;;;5033183;28;20492;-50
2023/04/06 03:20:47;;;;;;;14.73;7.45;;;-1.00;99.90;;;;;;5026142;28;20042;-48
2023/04/06 03:23:15;;;;;;;16.88;7.47;;;-1.00;99.90;;;;;;5013204;28;20057;-48
2023/04/06 03:25:44;;;;;;;16.17;7.32;;;-1.00;99.90;;;;;;4995932;28;20041;-49
2023/04/06 03:28:15;;;;;;;17.42;6.85;;;-0.90;99.90;;;;;;4996478;28;20050;-50
2023/04/06 03:30:49;;;;;;;10.25;6.03;;;-1.10;99.90;;;;;;5014853;28;20050;-51
2023/04/06 03:33:22;;;;;;;15.18;6.68;;;-1.10;99.90;;;;;;4996519;28;20486;-48
2023/04/06 03:35:53;;;;;;;13.65;6.60;;;-1.10;99.90;;;;;;5013160;28;20037;-50
2023/04/06 03:38:22;;;;;;;12.63;6.68;;;-1.10;99.90;;;;;;5015693;28;20132;-49
2023/04/06 03:40:48;;;;;;;14.30;10.65;;;-1.20;99.90;;;;;;5014356;28;20057;-48
2023/04/06 03:43:19;;;;;;;14.85;6.68;;;-1.20;99.90;;;;;;4996480;28;20422;-49
2023/04/06 03:45:46;;;;;;;9.68;4.35;;;-1.20;99.90;;;;;;4996676;28;20057;-49
2023/04/06 03:48:14;;;;;;;17.45;7.45;;;-1.20;99.90;;;;;;5020302;28;20137;-49
2023/04/06 03:50:41;;;;;;;16.33;7.03;;;-1.20;99.90;;;;;;5023005;28;20132;-48
2023/04/06 03:53:08;;;;;;;10.10;5.35;;;-1.20;99.90;;;;;;5032254;28;20414;-48
2023/04/06 03:55:35;;;;;;;16.58;8.15;;;-1.30;99.90;;;;;;5032923;28;20457;-48
2023/04/06 03:58:02;;;;;;;17.13;9.23;;;-1.30;99.90;;;;;;5000051;28;20046;-48
2023/04/06 04:00:29;;;;;;;16.98;8.38;;;-1.30;99.90;;;;;;5012078;28;20474;-51
2023/04/06 04:02:56;;;;;;;17.23;8.07;;;-1.40;99.90;;;;;;5013830;28;20093;-48
2023/04/06 04:05:25;;;;;;;13.98;7.82;;;-1.40;99.90;;;;;;5009160;28;20050;-48
2023/04/06 04:07:52;;;;;;;19.85;8.65;;;-1.40;99.90;;;;;;5033389;28;20045;-48
2023/04/06 04:10:22;;;;;;;16.02;7.72;;;-1.40;99.90;;;;;;5032164;28;20502;-48
2023/04/06 04:12:49;;;;;;;13.70;7.40;;;-1.40;99.90;;;;;;5036286;28;20114;-48
2023/04/06 04:15:16;;;;;;;16.05;8.07;;;-1.20;99.90;;;;;;5020403;28;20041;-48
2023/04/06 04:17:46;;;;;;;13.95;6.93;;;-1.40;99.90;;;;;;5032457;28;20087;-50
2023/04/06 04:20:13;;;;;;;20.98;8.07;;;-1.30;99.90;;;;;;5032146;28;20064;-49
2023/04/06 04:22:40;;;;;;;17.65;6.95;;;-1.40;99.90;;;;;;5033671;28;20534;-47
2023/04/06 04:25:08;;;;;;;20.27;8.13;;;-1.40;99.90;;;;;;5021069;28;20511;-48
2023/04/06 04:27:40;;;;;;;23.38;8.80;;;-1.40;99.90;;;;;;5011819;28;20072;-49
2023/04/06 04:30:07;;;;;;;16.02;7.57;;;-1.50;99.90;;;;;;4995481;28;20041;-49
2023/04/06 04:32:34;;;;;;;13.40;7.40;;;-1.50;99.90;;;;;;5013469;28;20087;-49
2023/04/06 04:35:04;;;;;;;14.05;6.65;;;-1.50;99.90;;;;;;5031432;28;20076;-48
2023/04/06 04:37:37;;;;;;;15.82;7.10;;;-1.50;99.90;;;;;;5014851;28;20033;-48
2023/04/06 04:40:04;;;;;;;14.70;6.15;;;-1.50;99.90;;;;;;5013314;28;20539;-49
2023/04/06 04:42:40;;;;;;;10.52;4.47;;;-1.40;99.90;;;;;;5015137;28;20037;-52
2023/04/06 04:45:12;;;;;;;15.10;6.75;;;-1.40;99.90;;;;;;5014114;28;20068;-51
2023/04/06 04:47:40;;;;;;;12.73;7.00;;;-1.40;99.90;;;;;;5010032;28;20067;-51
2023/04/06 04:50:10;;;;;;;14.30;6.97;;;-1.40;99.90;;;;;;5053585;28;20148;-48
2023/04/06 04:52:40;;;;;;;14.43;6.60;;;-1.40;99.90;;;;;;5021655;28;20048;-49
2023/04/06 04:55:17;;;;;;;11.10;6.03;;;-1.40;99.90;;;;;;5020473;28;20050;-49
2023/04/06 04:57:46;;;;;;;14.85;8.80;;;-1.40;99.90;;;;;;5013162;28;20072;-50
2023/04/06 05:00:14;;;;;;;16.70;7.32;;;-1.40;99.90;;;;;;5015546;28;20044;-49
2023/04/06 05:02:43;;;;;;;10.90;6.03;;;-1.40;99.90;;;;;;5007479;28;20466;-48
2023/04/06 05:05:17;;;;;;;11.27;7.07;;;-1.40;99.90;;;;;;4993995;28;20104;-49
2023/04/06 05:07:45;;;;;;;15.93;8.52;;;-1.30;99.90;;;;;;5011616;28;20042;-50
2023/04/06 05:10:22;;;;;;;20.98;8.75;;;-1.30;99.90;;;;;;5015082;28;20064;-51
2023/04/06 05:12:53;;;;;;;21.20;9.38;;;-1.30;99.90;;;;;;5010514;28;20046;-48
2023/04/06 05:15:20;;;;;;;27.52;10.15;;;-1.20;99.90;;;;;;5009364;28;20107;-48
2023/04/06 05:17:51;;;;;;;19.15;8.68;;;-1.20;99.90;;;;;;5018838;28;20073;-48
2023/04/06 05:20:23;;;;;;;18.05;8.55;;;-1.20;99.90;;;;;;5020261;28;20124;-49
2023/04/06 05:22:50;;;;;;;15.25;7.82;;;-1.20;99.90;;;;;;5005053;28;20100;-49
2023/04/06 05:25:17;;;;;;;12.18;5.00;;;-1.20;99.90;;;;;;5014382;28;20553;-48
2023/04/06 05:27:47;;;;;;;14.02;7.85;;;-1.20;99.90;;;;;;5011259;28;20502;-48
2023/04/06 05:30:30;;;;;;;17.33;7.55;;;-1.20;99.90;;;;;;5010193;28;20418;-49
2023/04/06 05:32:58;;;;;;;16.17;7.60;;;-1.20;99.90;;;;;;5010873;28;20059;-48
2023/04/06 05:35:31;;;;;;;17.25;8.32;;;-1.00;99.90;;;;;;5018201;28;20410;-49
2023/04/06 05:38:09;;;;;;;17.67;8.00;;;-0.80;99.90;;;;;;5030200;28;20041;-48
2023/04/06 05:40:38;;;;;;;17.77;8.43;;;-0.80;99.90;;;;;;5030363;28;20136;-49
2023/04/06 05:43:08;;;;;;;19.73;8.73;;;-0.60;99.90;;;;;;5021513;28;20038;-50
2023/04/06 05:45:36;;;;;;;22.08;8.73;;;-0.40;99.90;;;;;;5010717;28;20042;-49
2023/04/06 05:48:05;;;;;;;16.50;8.65;;;-0.20;99.90;;;;;;5019024;28;20037;-48
2023/04/06 05:50:31;;;;;;;17.17;9.73;;;-0.10;99.90;;;;;;5029589;28;20041;-49
2023/04/06 05:53:00;;;;;;;19.75;8.40;;;0.00;99.90;;;;;;5027160;28;20583;-48
2023/04/06 05:55:32;;;;;;;20.10;9.35;;;0.10;99.90;;;;;;5017677;28;20060;-48
2023/04/06 05:58:10;;;;;;;24.45;10.63;;;0.10;99.90;;;;;;5010438;28;20053;-48
2023/04/06 06:00:37;;;;;;;20.35;11.10;;;0.20;99.90;;;;;;5009532;28;20053;-48
2023/04/06 06:03:08;;;;;;;35.95;14.65;;;0.20;99.90;;;;;;5012552;28;20049;-48
2023/04/06 06:05:37;;;;;;;28.85;13.68;;;0.20;99.90;;;;;;5010522;28;20131;-50
2023/04/06 06:08:10;;;;;;;28.55;14.45;;;0.30;99.90;;;;;;5021046;28;20076;-49
2023/04/06 06:10:38;;;;;;;;;;;0.40;99.90;;;;;;5009330;28;20077;-52
2023/04/06 06:13:06;;;;;;;23.23;8.75;;;0.50;99.90;;;;;;5026221;28;19925;-49
2023/04/06 06:15:33;;;;;;;13.88;7.45;;;0.50;99.90;;;;;;5017225;28;20490;-49
2023/04/06 06:18:01;;;;;;;26.90;12.85;;;0.50;99.90;;;;;;4993475;28;20038;-51
2023/04/06 06:20:29;;;;;;;25.63;12.35;;;0.60;99.90;;;;;;5006084;28;20037;-50
2023/04/06 06:22:59;;;;;;;25.15;10.23;;;0.70;99.90;;;;;;5052034;23;20084;-51
2023/04/06 06:25:26;;;;;;;26.10;11.77;;;0.80;99.90;;;;;;5067086;28;20493;-49
2023/04/06 06:27:53;;;;;;;26.52;11.38;;;0.90;99.90;;;;;;5065986;28;20036;-48
2023/04/06 06:30:20;;;;;;;22.83;9.23;;;1.00;99.90;;;;;;5072158;28;20048;-50
2023/04/06 06:32:51;;;;;;;29.38;13.98;;;1.00;99.90;;;;;;5069463;28;20067;-51
2023/04/06 06:35:18;;;;;;;22.92;11.60;;;1.00;99.90;;;;;;5040800;28;20136;-53
2023/04/06 06:37:46;;;;;;;24.45;12.73;;;1.00;99.90;;;;;;5053065;28;20041;-52
2023/04/06 06:40:17;;;;;;;27.42;12.75;;;1.00;99.90;;;;;;5052637;28;20041;-54
2023/04/06 06:42:46;;;;;;;27.45;12.95;;;1.10;99.90;;;;;;5051461;28;20037;-51
2023/04/06 06:45:20;;;;;;;25.75;12.35;;;1.20;99.90;;;;;;5060379;28;20110;-52
2023/04/06 06:47:47;;;;;;;22.05;10.95;;;1.30;99.90;;;;;;5070888;28;20481;-51
2023/04/06 06:50:14;;;;;;;23.85;11.38;;;1.50;99.90;;;;;;5070274;28;20055;-53
2023/04/06 06:52:41;;;;;;;19.15;10.40;;;1.60;99.90;;;;;;5061012;28;20053;-51
2023/04/06 06:55:10;;;;;;;20.98;10.60;;;1.70;99.90;;;;;;5050019;28;20562;-51
2023/04/06 06:57:38;;;;;;;16.80;10.68;;;1.80;99.90;;;;;;5048508;28;20056;-51
2023/04/06 07:00:07;;;;;;;19.40;11.48;;;1.90;99.90;;;;;;5067407;28;20052;-49
2023/04/06 07:02:35;;;;;;;17.70;10.52;;;2.00;99.90;;;;;;5070149;28;20054;-51
2023/04/06 07:05:02;;;;;;;21.08;10.55;;;2.10;99.90;;;;;;5052655;28;20041;-51
2023/04/06 07:07:42;;;;;;;23.35;10.35;;;2.20;99.90;;;;;;5038310;28;20044;-51
2023/04/06 07:10:10;;;;;;;18.52;10.52;;;2.40;99.90;;;;;;5051921;28;20055;-54
2023/04/06 07:12:37;;;;;;;15.95;9.60;;;2.50;99.90;;;;;;5052513;28;20530;-52
2023/04/06 07:15:05;;;;;;;22.15;10.23;;;2.50;99.90;;;;;;5046931;28;20556;-51
2023/04/06 07:17:33;;;;;;;19.17;9.23;;;2.70;99.90;;;;;;5041068;28;20044;-52
2023/04/06 07:19:59;;;;;;;18.88;9.60;;;2.80;99.90;;;;;;5051755;28;20135;-52
2023/04/06 07:22:26;;;;;;;20.60;10.23;;;2.90;99.90;;;;;;5070407;28;20044;-51
2023/04/06 07:24:53;;;;;;;17.92;9.95;;;2.90;99.90;;;;;;5037484;28;20049;-50
2023/04/06 07:27:20;;;;;;;19.02;7.13;;;3.10;99.90;;;;;;5052602;28;20048;-50
2023/04/06 07:29:47;;;;;;;14.57;9.07;;;3.20;99.90;;;;;;5069729;28;20029;-52
2023/04/06 07:32:13;;;;;;;16.85;8.48;;;3.30;99.90;;;;;;5051526;28;20041;-50
2023/04/06 07:34:40;;;;;;;17.52;8.85;;;3.40;99.90;;;;;;5037629;28;20447;-50
2023/04/06 07:37:07;;;;;;;12.27;7.75;;;3.60;99.90;;;;;;5052215;28;20056;-51
2023/04/06 07:39:34;;;;;;;18.00;9.05;;;3.70;99.90;;;;;;5051869;28;20048;-51
2023/04/06 07:42:01;;;;;;;14.20;8.57;;;3.70;99.90;;;;;;5073561;28;20405;-50
2023/04/06 07:44:28;;;;;;;18.10;9.15;;;3.80;99.90;;;;;;5063552;28;20527;-50
2023/04/06 07:46:55;;;;;;;17.65;8.32;;;3.90;99.90;;;;;;5055534;28;20045;-53
2023/04/06 07:49:22;;;;;;;16.73;8.82;;;3.90;99.90;;;;;;5057452;28;20041;-52
2023/04/06 07:51:49;;;;;;;17.58;8.30;;;4.00;99.90;;;;;;5047255;28;20043;-51
2023/04/06 07:54:16;;;;;;;16.27;8.82;;;4.10;99.90;;;;;;5034861;28;20493;-54
2023/04/06 07:56:43;;;;;;;15.10;7.57;;;4.40;99.90;;;;;;5035778;28;20045;-51
2023/04/06 07:59:11;;;;;;;15.27;8.00;;;4.40;99.90;;;;;;5062807;28;20102;-49
2023/04/06 08:01:38;;;;;;;13.35;7.40;;;4.60;99.90;;;;;;5059277;28;20040;-51
2023/04/06 08:04:04;;;;;;;12.57;6.93;;;4.70;99.90;;;;;;5064410;28;20547;-51
2023/04/06 08:06:31;;;;;;;16.75;7.90;;;4.90;99.90;;;;;;5066246;28;20051;-51
2023/04/06 08:08:58;;;;;;;13.55;7.63;;;4.90;99.90;;;;;;5056174;28;20049;-52
2023/04/06 08:11:26;;;;;;;12.57;7.47;;;5.10;99.90;;;;;;5065005;28;20071;-49
2023/04/06 08:13:55;;;;;;;12.20;8.15;;;5.20;99.90;;;;;;5073137;28;20067;-50
2023/04/06 08:16:22;;;;;;;12.40;7.75;;;5.40;99.90;;;;;;5071948;28;20044;-49
2023/04/06 08:18:49;;;;;;;15.02;8.18;;;5.30;99.90;;;;;;5061120;28;20065;-50
2023/04/06 08:21:15;;;;;;;12.73;7.80;;;5.30;99.90;;;;;;5072518;28;20482;-53
2023/04/06 08:23:42;;;;;;;10.95;7.85;;;5.30;99.90;;;;;;5072742;28;20128;-51
2023/04/06 08:26:09;;;;;;;14.98;8.23;;;5.40;99.90;;;;;;5070044;28;20048;-51
2023/04/06 08:28:36;;;;;;;13.68;8.50;;;5.50;99.90;;;;;;5052441;28;20439;-52
2023/04/06 08:31:05;;;;;;;18.42;8.77;;;5.40;99.90;;;;;;5072994;28;20094;-51
2023/04/06 08:33:35;;;;;;;13.38;7.80;;;5.40;99.90;;;;;;5062448;28;20044;-51
2023/04/06 08:36:13;;;;;;;9.82;7.00;;;5.60;99.90;;;;;;5064744;28;20071;-51
2023/04/06 08:38:41;;;;;;;12.73;7.45;;;5.90;99.90;;;;;;5052321;28;20497;-51
2023/04/06 08:41:10;;;;;;;16.85;7.13;;;5.90;99.90;;;;;;5052575;28;20501;-51
2023/04/06 08:43:59;;;;;;;14.65;8.00;;;5.80;99.90;;;;;;5051710;28;20516;-50
2023/04/06 08:46:31;;;;;;;;;;;5.80;99.90;;;;;;5033003;28;20075;-50
2023/04/06 08:49:02;;;;;;;17.65;7.93;;;5.90;99.90;;;;;;5032591;28;19925;-51
2023/04/06 08:51:30;;;;;;;14.85;7.38;;;6.10;99.90;;;;;;5048337;28;20052;-50
2023/04/06 08:53:57;;;;;;;;;;;6.10;99.90;;;;;;5055010;28;20111;-52
2023/04/06 08:56:26;;;;;;;12.82;7.88;;;6.20;99.90;;;;;;5072164;28;20030;-54
2023/04/06 08:58:53;;;;;;;11.55;7.43;;;6.40;99.90;;;;;;5072185;28;20405;-51
2023/04/06 09:01:25;;;;;;;10.80;7.82;;;6.50;99.90;;;;;;5062642;28;20044;-52
2023/04/06 09:03:57;;;;;;;12.00;7.50;;;6.80;99.90;;;;;;5072049;28;20505;-52
2023/04/06 09:06:28;;;;;;;13.32;7.72;;;7.30;99.90;;;;;;5065650;28;20064;-52
2023/04/06 09:08:55;;;;;;;14.40;7.30;;;7.80;99.60;;;;;;5062309;28;20057;-54
2023/04/06 09:11:22;;;;;;;13.65;7.72;;;8.20;98.10;;;;;;5072266;28;20242;-50
2023/04/06 09:13:54;;;;;;;15.07;7.25;;;8.40;99.00;;;;;;5071257;28;20075;-53
2023/04/06 09:16:22;;;;;;;11.77;7.68;;;8.50;97.90;;;;;;5063801;28;20076;-50
2023/04/06 09:18:49;;;;;;;11.63;7.40;;;8.40;96.60;;;;;;5047977;28;20115;-50
2023/04/06 09:21:18;;;;;;;10.55;7.30;;;8.80;95.80;;;;;;5071861;28;20106;-50
2023/04/06 09:23:48;;;;;;;10.40;6.60;;;9.00;95.20;;;;;;5070320;28;20041;-52
2023/04/06 09:26:17;;;;;;;11.10;6.88;;;9.10;94.70;;;;;;5067225;28;20041;-51
2023/04/06 09:28:47;;;;;;;12.10;7.10;;;9.40;94.20;;;;;;5066990;28;20068;-52
2023/04/06 09:31:15;;;;;;;13.05;6.88;;;9.70;93.30;;;;;;5071398;28;20043;-51
2023/04/06 09:33:45;;;;;;;13.70;7.50;;;9.90;92.20;;;;;;5071969;28;20546;-50
2023/04/06 09:36:13;;;;;;;11.63;6.82;;;9.70;93.30;;;;;;5065552;28;20052;-52
2023/04/06 09:38:53;;;;;;;15.20;8.00;;;9.30;91.80;;;;;;5071631;28;20078;-52
2023/04/06 09:41:23;;;;;;;12.80;7.20;;;9.00;92.50;;;;;;5071241;28;20558;-50
2023/04/06 09:44:10;;;;;;;12.40;7.60;;;8.90;93.40;;;;;;5065614;28;20064;-51
2023/04/06 09:46:39;;;;;;;12.88;6.60;;;9.00;93.10;;;;;;5046270;28;20456;-54
2023/04/06 09:49:29;;;;;;;11.13;7.28;;;9.00;93.60;;;;;;5051533;28;20045;-51
2023/04/06 09:51:59;;;;;;;8.68;6.28;;;9.00;92.60;;;;;;5050707;28;20044;-51
2023/04/06 09:54:29;;;;;;;10.50;7.13;;;9.10;92.40;;;;;;5071226;28;20455;-50
2023/04/06 09:57:16;;;;;;;13.45;6.65;;;9.10;90.70;;;;;;5070912;28;20059;-51
2023/04/06 10:00:10;;;;;;;11.43;7.88;;;9.30;89.90;;;;;;5064612;28;20131;-50
2023/04/06 10:02:58;;;;;;;12.52;7.03;;;9.40;90.70;;;;;;5063875;28;20090;-51
2023/04/06 10:05:34;;;;;;;14.15;6.82;;;9.70;89.00;;;;;;5069212;28;20111;-52
2023/04/06 10:08:07;;;;;;;12.15;7.22;;;9.90;87.00;;;;;;5057836;28;20413;-50
2023/04/06 10:10:34;;;;;;;9.05;6.22;;;10.30;85.10;;;;;;5052372;28;20334;-54
2023/04/06 10:13:00;;;;;;;8.63;6.32;;;10.60;84.20;;;;;;5070991;28;20067;-51
2023/04/06 10:15:31;;;;;;;11.65;7.28;;;10.80;81.50;;;;;;5059076;28;20049;-51
2023/04/06 10:17:58;;;;;;;12.70;7.18;;;10.90;82.30;;;;;;5065655;28;20558;-52
2023/04/06 10:20:53;;;;;;;13.43;7.00;;;11.10;78.70;;;;;;5070537;28;20397;-52
2023/04/06 10:23:29;;;;;;;10.45;6.85;;;11.20;74.30;;;;;;5071123;28;20063;-51
2023/04/06 10:25:58;;;;;;;9.65;6.80;;;10.90;73.30;;;;;;5055302;28;20064;-51
2023/04/06 10:28:25;;;;;;;9.93;6.57;;;10.60;72.50;;;;;;5070643;28;20493;-52
2023/04/06 10:31:02;;;;;;;;;;;10.20;71.30;;;;;;5071451;28;20060;-50
2023/04/06 10:33:28;;;;;;;9.93;6.07;;;10.10;75.20;;;;;;5064478;28;19921;-53
2023/04/06 10:35:55;;;;;;;9.35;7.10;;;10.30;75.00;;;;;;5049669;28;20076;-51
2023/04/06 10:38:35;;;;;;;9.35;7.30;;;10.50;72.80;;;;;;5066223;28;20053;-52
2023/04/06 10:41:09;;;;;;;11.15;7.50;;;10.70;74.70;;;;;;5069615;28;20134;-53
2023/04/06 10:43:38;;;;;;;13.40;7.88;;;11.10;74.30;;;;;;5069826;28;20489;-51
2023/04/06 10:46:06;;;;;;;11.55;7.30;;;11.40;72.20;;;;;;5070987;28;20044;-53
2023/04/06 10:48:41;;;;;;;11.55;7.20;;;11.80;74.40;;;;;;5055391;28;20037;-53
2023/04/06 10:51:10;;;;;;;11.65;6.88;;;12.10;73.40;;;;;;5071052;28;20098;-50
2023/04/06 10:53:37;;;;;;;11.63;7.20;;;12.20;67.50;;;;;;5070533;28;20037;-51
2023/04/06 10:56:10;;;;;;;12.35;7.10;;;12.30;72.30;;;;;;5057406;28;20500;-52
2023/04/06 10:58:38;;;;;;;10.85;7.18;;;12.00;68.60;;;;;;5059340;28;20055;-53
2023/04/06 11:01:05;;;;;;;9.88;6.25;;;11.80;67.60;;;;;;5070361;28;20056;-50
2023/04/06 11:03:45;;;;;;;11.52;6.28;;;11.60;66.50;;;;;;5053025;28;20044;-53
2023/04/06 11:06:20;;;;;;;10.30;6.55;;;11.50;67.40;;;;;;5049987;28;20498;-51
2023/04/06 11:08:47;;;;;;;8.52;7.03;;;11.20;70.90;;;;;;5044261;28;20068;-52
2023/04/06 11:11:15;;;;;;;10.02;6.72;;;11.30;68.80;;;;;;5068218;28;20405;-51
2023/04/06 11:13:46;;;;;;;14.13;7.00;;;11.40;68.90;;;;;;5070277;28;20044;-50
2023/04/06 11:16:15;;;;;;;11.82;7.20;;;11.20;66.10;;;;;;5066269;28;20484;-49
2023/04/06 11:18:55;;;;;;;9.75;7.05;;;10.70;66.70;;;;;;5054016;28;20115;-51
2023/04/06 11:21:39;;;;;;;12.85;8.43;;;10.40;69.30;;;;;;5054354;28;20049;-50
2023/04/06 11:24:15;;;;;;;10.73;7.60;;;10.60;71.20;;;;;;5054220;28;20052;-53
2023/04/06 11:26:50;;;;;;;9.77;7.20;;;10.50;68.30;;;;;;5054356;28;20504;-50
2023/04/06 11:29:22;;;;;;;11.85;7.20;;;10.60;68.60;;;;;;5073917;28;20036;-50
2023/04/06 11:31:57;;;;;;;12.57;7.47;;;10.80;69.40;;;;;;5073672;28;20032;-51
2023/04/06 11:34:25;;;;;;;11.25;6.97;;;11.00;70.80;;;;;;5055266;28;20060;-52
2023/04/06 11:37:01;;;;;;;10.15;6.40;;;11.30;69.10;;;;;;5067467;28;20033;-50
2023/04/06 11:39:30;;;;;;;15.73;7.38;;;11.30;68.00;;;;;;5050641;28;20076;-53
2023/04/06 11:42:04;;;;;;;9.93;7.13;;;11.20;67.30;;;;;;5068100;28;20045;-51
2023/04/06 11:44:38;;;;;;;;;;;11.20;69.00;;;;;;5073448;28;20045;-52
2023/04/06 11:47:08;;;;;;;10.55;7.07;;;11.10;66.70;;;;;;5070605;28;19963;-50
2023/04/06 11:49:38;;;;;;;9.30;7.05;;;11.40;68.60;;;;;;5057991;28;20162;-52
2023/04/06 11:52:18;;;;;;;15.07;8.00;;;11.70;67.10;;;;;;5073574;28;20554;-51
2023/04/06 11:54:47;;;;;;;9.65;7.38;;;11.90;68.70;;;;;;5073986;28;20097;-50
2023/04/06 11:57:14;;;;;;;9.75;7.38;;;11.90;67.90;;;;;;5073546;28;20068;-50
2023/04/06 11:59:41;;;;;;;10.50;7.15;;;11.90;66.40;;;;;;5068158;28;20497;-52
2023/04/06 12:02:08;;;;;;;14.45;7.32;;;12.00;67.50;;;;;;5073048;28;20134;-50
2023/04/06 12:04:35;;;;;;;;;;;11.90;65.70;;;;;;5074104;28;20481;-50
2023/04/06 12:07:03;;;;;;;14.55;7.38;;;12.00;64.40;;;;;;5060281;28;19925;-50
2023/04/06 12:09:30;;;;;;;16.67;8.13;;;12.00;65.90;;;;;;5073213;28;20097;-51
2023/04/06 12:11:57;;;;;;;10.35;6.60;;;12.10;64.80;;;;;;5064103;28;20506;-52
2023/04/06 12:14:24;;;;;;;10.20;6.88;;;12.20;63.80;;;;;;5073418;28;20481;-51
2023/04/06 12:16:51;;;;;;;11.27;6.80;;;12.40;65.00;;;;;;5072464;28;20040;-51
2023/04/06 12:19:17;;;;;;;10.32;7.07;;;12.10;63.80;;;;;;5073194;28;20447;-51
2023/04/06 12:21:44;;;;;;;10.35;7.10;;;11.80;62.50;;;;;;5053520;28;20451;-51
2023/04/06 12:24:11;;;;;;;9.75;7.05;;;11.60;64.20;;;;;;5080502;22;20075;-52
2023/04/06 12:26:38;;;;;;;9.43;6.85;;;11.40;65.60;;;;;;5043442;28;20045;-53
2023/04/06 12:29:06;;;;;;;10.48;6.95;;;11.50;63.50;;;;;;5047838;28;20477;-52
2023/04/06 12:31:42;;;;;;;13.88;7.55;;;11.40;67.40;;;;;;5062070;28;20040;-52
2023/04/06 12:34:09;;;;;;;11.20;7.50;;;11.40;64.80;;;;;;5072581;28;20048;-55
2023/04/06 12:36:37;;;;;;;10.35;6.35;;;11.40;63.80;;;;;;5073014;28;20052;-52
2023/04/06 12:39:04;;;;;;;12.38;7.30;;;11.20;66.00;;;;;;5047126;28;20121;-50
2023/04/06 12:41:31;;;;;;;11.43;7.25;;;11.10;65.60;;;;;;5071976;28;20495;-51
2023/04/06 12:43:59;;;;;;;11.95;6.85;;;11.20;65.80;;;;;;5063938;28;20081;-54
2023/04/06 12:46:26;;;;;;;11.32;6.70;;;11.30;66.90;;;;;;5054832;28;20041;-51
2023/04/06 12:48:56;;;;;;;8.65;6.60;;;11.30;68.70;;;;;;5055096;28;20116;-50
2023/04/06 12:51:23;;;;;;;11.25;6.82;;;11.40;67.70;;;;;;5052580;28;20033;-52
2023/04/06 12:53:50;;;;;;;11.60;6.78;;;11.50;67.20;;;;;;5052402;28;20103;-54
2023/04/06 12:56:18;;;;;;;12.52;7.30;;;11.90;65.50;;;;;;5044411;28;20497;-54
2023/04/06 12:58:45;;;;;;;9.45;6.85;;;12.20;66.30;;;;;;5051499;28;20493;-51
2023/04/06 13:01:15;;;;;;;;;;;12.20;63.90;;;;;;5053345;28;20068;-52
2023/04/06 13:03:42;;;;;;;10.93;7.28;;;12.20;63.40;;;;;;5047327;28;19928;-51